シドニー の空港の天気 - METARとTAF

シドニー国際空港 ( YSSY / SYD ) - オーストラリア ニューサウスウェールズ州、Mascot
飛行場実況気象(Metar)
観測時間04/25 11:30 AEST (04/25 01:30 UTC)
風向・風速南南東 4m/s
視程10km以上
天気現象
少しの雲 雲底高度 1040m
気温25℃
湿度54%
気圧1019hPa
METARYSSY 250130Z 16007KT 9999 FEW034 25/15 Q1019 NOSIG
過去の天気等 Google飛行場航空写真 Wunderground天気予報

過去48時間のMETAR

飛行場予報(TAF)
発表時間: 4/25 09:03 AEST (4/24 23:03 UTC)
予報対象時間: 25日10時 AEST ~ 26日16時 AEST
風向・風速西 4m/s
視程10km以上
なし
25日13時 AEST から
風向・風速南東 5m/s
視程10km以上
少しの雲 雲底高度 460m
25日19時 AEST から
風向・風速北東 4m/s
視程10km以上
少しの雲 雲底高度 460m
26日0時 AEST から
風向・風速西 4m/s
視程10km以上
なし
26日12時 AEST から
風向・風速西南西 7m/s 瞬間風速 14m/s
視程10km以上
なし
TAF YSSY 242303Z 2500/2606 28008KT CAVOK
FM250300 14010KT 9999 FEW015
FM250900 04008KT 9999 FEW015
FM251400 28008KT CAVOK
FM260200 24014G28KT CAVOK